createdAt,value
2023-04-11T00:00:37.448Z,4.10
2023-04-11T00:01:37.550Z,4.84
2023-04-11T00:02:37.566Z,4.72
2023-04-11T00:03:37.695Z,5.00
2023-04-11T00:04:37.637Z,4.38
2023-04-11T00:05:37.508Z,4.00
2023-04-11T00:06:37.551Z,4.39
2023-04-11T00:07:37.541Z,4.52
2023-04-11T00:08:37.573Z,4.04
2023-04-11T00:09:37.585Z,4.48
2023-04-11T00:10:37.611Z,4.88
2023-04-11T00:11:37.693Z,3.52
2023-04-11T00:12:37.622Z,3.46
2023-04-11T00:13:37.655Z,3.89
2023-04-11T00:14:37.669Z,3.65
2023-04-11T00:15:37.667Z,4.01
2023-04-11T00:16:37.758Z,3.36
2023-04-11T00:17:38.003Z,4.15
2023-04-11T00:18:37.689Z,3.97
2023-04-11T00:19:37.709Z,4.41
2023-04-11T00:20:37.733Z,4.23
2023-04-11T00:21:37.787Z,4.66
2023-04-11T00:22:37.780Z,5.54
2023-04-11T00:23:37.822Z,5.69
2023-04-11T00:24:37.862Z,6.66
2023-04-11T00:25:37.927Z,6.69
2023-04-11T00:26:38.004Z,7.45
2023-04-11T00:27:38.042Z,8.65
2023-04-11T00:28:38.092Z,8.54
2023-04-11T00:29:38.112Z,8.92
2023-04-11T00:30:38.146Z,8.52
2023-04-11T00:31:38.273Z,8.76
2023-04-11T00:32:38.259Z,7.60
2023-04-11T00:33:40.427Z,7.65
2023-04-11T00:34:38.300Z,8.16
2023-04-11T00:35:38.414Z,8.20
2023-04-11T00:36:38.479Z,8.00
2023-04-11T00:37:38.330Z,8.12
2023-04-11T00:38:38.373Z,8.32
2023-04-11T00:39:38.402Z,7.49
2023-04-11T00:40:38.409Z,7.81
2023-04-11T00:41:38.445Z,7.77
2023-04-11T00:42:38.504Z,8.15
2023-04-11T00:43:38.592Z,9.29
2023-04-11T00:44:39.506Z,7.83
2023-04-11T00:45:38.649Z,8.69
2023-04-11T00:46:38.633Z,8.56
2023-04-11T00:47:38.729Z,7.91
2023-04-11T00:48:38.728Z,8.55
2023-04-11T00:49:38.718Z,8.99
2023-04-11T00:50:38.741Z,9.01
2023-04-11T00:51:38.764Z,8.46
2023-04-11T00:52:38.781Z,8.61
2023-04-11T00:53:38.806Z,8.32
2023-04-11T00:54:38.836Z,7.95
2023-04-11T00:55:38.861Z,8.12
2023-04-11T00:56:38.897Z,8.24
2023-04-11T00:57:38.987Z,7.75
2023-04-11T00:58:39.042Z,8.95
2023-04-11T00:59:39.133Z,8.12
2023-04-11T01:00:39.177Z,5.70
2023-04-11T01:01:39.321Z,6.04
2023-04-11T01:02:39.507Z,6.83
2023-04-11T01:03:39.624Z,6.11
2023-04-11T01:04:40.521Z,6.22
2023-04-11T01:05:39.557Z,7.83
2023-04-11T01:06:39.592Z,9.44
2023-04-11T01:07:39.672Z,10.11
2023-04-11T01:08:39.737Z,9.56
2023-04-11T01:09:39.793Z,11.00
2023-04-11T01:10:39.866Z,9.05
2023-04-11T01:11:39.869Z,9.00
2023-04-11T01:12:39.920Z,7.85
2023-04-11T01:13:39.983Z,6.92
2023-04-11T01:14:40.062Z,7.24
2023-04-11T01:15:40.125Z,7.23
2023-04-11T01:16:40.232Z,7.00
2023-04-11T01:17:40.263Z,7.44
2023-04-11T01:18:40.318Z,7.72
2023-04-11T01:19:40.367Z,7.95
2023-04-11T01:20:40.495Z,8.28
2023-04-11T01:21:40.490Z,8.90
2023-04-11T01:22:40.513Z,8.40
2023-04-11T01:23:40.551Z,8.62
2023-04-11T01:24:40.600Z,9.17
2023-04-11T01:25:40.652Z,8.31
2023-04-11T01:26:40.725Z,8.60
2023-04-11T01:27:41.530Z,8.90
2023-04-11T01:28:40.849Z,8.40
2023-04-11T01:29:40.939Z,8.33
2023-04-11T01:30:41.085Z,8.03
2023-04-11T01:31:41.093Z,6.97
2023-04-11T01:32:41.153Z,8.07
2023-04-11T01:33:41.170Z,8.09
2023-04-11T01:34:41.250Z,7.94
2023-04-11T01:35:41.364Z,7.71
2023-04-11T01:36:41.402Z,7.79
2023-04-11T01:37:41.453Z,7.99
2023-04-11T01:38:41.518Z,7.27
2023-04-11T01:39:41.576Z,7.97
2023-04-11T01:40:41.669Z,6.74
2023-04-11T01:41:41.755Z,6.78
2023-04-11T01:42:41.813Z,6.98
2023-04-11T01:43:41.900Z,6.84
2023-04-11T01:44:41.975Z,6.46
2023-04-11T01:45:42.054Z,6.63
2023-04-11T01:46:42.146Z,6.45
2023-04-11T01:47:42.342Z,6.44
2023-04-11T01:48:42.364Z,6.01
2023-04-11T01:49:42.374Z,7.04
2023-04-11T01:50:42.458Z,8.06
2023-04-11T01:51:42.586Z,7.38
2023-04-11T01:52:42.663Z,8.26
2023-04-11T01:53:42.735Z,6.99
2023-04-11T01:54:42.825Z,7.06
2023-04-11T01:55:42.916Z,6.81
2023-04-11T01:56:42.992Z,6.58
2023-04-11T01:57:43.090Z,7.26
2023-04-11T01:58:43.160Z,8.19
2023-04-11T01:59:43.211Z,9.35
2023-04-11T02:00:43.277Z,9.56
2023-04-11T02:01:43.409Z,8.89
2023-04-11T02:02:43.452Z,8.37
2023-04-11T02:03:43.518Z,8.52
2023-04-11T02:04:43.521Z,8.93
2023-04-11T02:05:43.666Z,8.04
2023-04-11T02:06:43.685Z,8.28
2023-04-11T02:07:43.751Z,8.39
2023-04-11T02:08:43.824Z,7.93
2023-04-11T02:09:43.887Z,8.43
2023-04-11T02:10:43.945Z,8.54
2023-04-11T02:11:44.038Z,8.65
2023-04-11T02:12:44.110Z,8.73
2023-04-11T02:13:44.185Z,9.08
2023-04-11T02:14:44.269Z,7.97
2023-04-11T02:15:44.390Z,8.02
2023-04-11T02:16:44.426Z,9.30
2023-04-11T02:17:44.524Z,8.92
2023-04-11T02:18:44.556Z,8.63
2023-04-11T02:19:44.654Z,8.85
2023-04-11T02:20:44.724Z,8.92
2023-04-11T02:21:44.808Z,8.37
2023-04-11T02:22:44.933Z,8.59
2023-04-11T02:23:44.972Z,10.31
2023-04-11T02:24:45.053Z,10.65
2023-04-11T02:25:45.093Z,10.06
2023-04-11T02:26:45.160Z,9.74
2023-04-11T02:27:45.242Z,9.71
2023-04-11T02:28:45.326Z,10.36
2023-04-11T02:29:45.428Z,10.52
2023-04-11T02:30:45.637Z,11.21
2023-04-11T02:31:45.655Z,12.23
2023-04-11T02:32:45.746Z,10.06
2023-04-11T02:33:45.763Z,9.20
2023-04-11T02:34:45.827Z,7.98
2023-04-11T02:35:45.932Z,8.36
2023-04-11T02:36:45.972Z,9.72
2023-04-11T02:37:46.023Z,8.71
2023-04-11T02:38:46.057Z,11.77
2023-04-11T02:39:46.162Z,14.81
2023-04-11T02:40:46.261Z,15.21
2023-04-11T02:41:46.367Z,13.15
2023-04-11T02:42:46.472Z,11.78
2023-04-11T02:43:46.586Z,12.28
2023-04-11T02:44:46.668Z,11.44
2023-04-11T02:45:46.744Z,11.11
2023-04-11T02:46:46.965Z,11.62
2023-04-11T02:47:47.053Z,9.92
2023-04-11T02:48:47.025Z,10.36
2023-04-11T02:49:47.062Z,9.87
2023-04-11T02:50:47.122Z,10.03
2023-04-11T02:51:47.233Z,8.87
2023-04-11T02:52:47.922Z,8.57
2023-04-11T02:53:47.394Z,9.24
2023-04-11T02:54:47.469Z,9.16
2023-04-11T02:55:47.572Z,9.16
2023-04-11T02:56:47.658Z,9.39
2023-04-11T02:57:47.729Z,8.69
2023-04-11T02:58:47.812Z,8.24
2023-04-11T02:59:47.877Z,8.05
2023-04-11T03:00:47.966Z,8.85
2023-04-11T03:01:48.200Z,8.38
2023-04-11T03:02:48.236Z,10.85
2023-04-11T03:03:48.360Z,13.10
2023-04-11T03:04:48.385Z,15.51
2023-04-11T03:05:48.487Z,15.78
2023-04-11T03:06:48.578Z,16.07
2023-04-11T03:07:48.676Z,11.73
2023-04-11T03:08:48.747Z,11.40
2023-04-11T03:09:48.825Z,9.90
2023-04-11T03:10:48.917Z,9.96
2023-04-11T03:11:49.030Z,7.41
2023-04-11T03:12:49.107Z,6.77
2023-04-11T03:13:49.203Z,7.72
2023-04-11T03:14:49.307Z,7.43
2023-04-11T03:15:49.440Z,6.92
2023-04-11T03:16:49.470Z,9.97
2023-04-11T03:17:49.600Z,9.06
2023-04-11T03:18:49.656Z,9.34
2023-04-11T03:19:49.764Z,8.48
2023-04-11T03:20:49.857Z,8.34
2023-04-11T03:21:49.944Z,8.95
2023-04-11T03:22:49.972Z,7.94
2023-04-11T03:23:50.053Z,8.15
2023-04-11T03:24:50.101Z,8.11
2023-04-11T03:25:50.174Z,7.91
2023-04-11T03:26:50.231Z,7.74
2023-04-11T03:27:50.325Z,8.80
2023-04-11T03:28:50.383Z,8.43
2023-04-11T03:29:50.460Z,8.18
2023-04-11T03:30:50.596Z,8.60
2023-04-11T03:31:50.814Z,8.04
2023-04-11T03:32:50.709Z,7.75
2023-04-11T03:33:50.760Z,7.78
2023-04-11T03:34:50.847Z,7.77
2023-04-11T03:35:50.915Z,8.24
2023-04-11T03:36:50.966Z,7.65
2023-04-11T03:37:51.058Z,8.48
2023-04-11T03:38:51.120Z,7.73
2023-04-11T03:39:51.218Z,7.61
2023-04-11T03:40:51.248Z,8.32
2023-04-11T03:41:51.332Z,8.29
2023-04-11T03:42:51.380Z,8.53
2023-04-11T03:43:51.443Z,7.77
2023-04-11T03:44:51.514Z,7.27
2023-04-11T03:45:51.585Z,8.00
2023-04-11T03:46:51.707Z,7.02
2023-04-11T03:47:51.760Z,7.23
2023-04-11T03:48:51.832Z,7.66
2023-04-11T03:49:51.945Z,7.58
2023-04-11T03:50:52.014Z,7.41
2023-04-11T03:51:52.118Z,7.05
2023-04-11T03:52:52.210Z,7.80
2023-04-11T03:53:52.314Z,7.53
2023-04-11T03:54:52.388Z,8.08
2023-04-11T03:55:52.496Z,7.46
2023-04-11T03:56:52.539Z,8.30
2023-04-11T03:57:52.648Z,7.97
2023-04-11T03:58:53.039Z,7.18
2023-04-11T03:59:52.806Z,8.22
2023-04-11T04:00:52.887Z,9.00
2023-04-11T04:01:53.066Z,8.80
2023-04-11T04:02:53.326Z,8.77
2023-04-11T04:03:53.372Z,8.90
2023-04-11T04:04:53.224Z,8.92
2023-04-11T04:05:53.310Z,8.76
2023-04-11T04:06:53.389Z,9.04
2023-04-11T04:07:55.265Z,7.95
2023-04-11T04:08:53.520Z,8.50
2023-04-11T04:09:53.527Z,8.14
2023-04-11T04:10:53.564Z,8.09
2023-04-11T04:11:53.611Z,6.82
2023-04-11T04:12:53.602Z,7.02
2023-04-11T04:13:53.852Z,7.45
2023-04-11T04:14:53.644Z,7.14
2023-04-11T04:15:53.673Z,7.43
2023-04-11T04:16:53.762Z,9.59
2023-04-11T04:17:53.799Z,8.77
2023-04-11T04:18:53.758Z,9.59
2023-04-11T04:19:53.771Z,9.60
2023-04-11T04:20:53.797Z,9.38
2023-04-11T04:21:53.825Z,9.47
2023-04-11T04:22:53.895Z,9.08
2023-04-11T04:23:54.225Z,8.83
2023-04-11T04:24:53.907Z,8.57
2023-04-11T04:25:53.941Z,9.26
2023-04-11T04:26:53.960Z,8.76
2023-04-11T04:27:54.100Z,7.89
2023-04-11T04:28:54.032Z,8.48
2023-04-11T04:30:01.587Z,8.32
2023-04-11T04:30:54.094Z,8.19
2023-04-11T04:31:54.068Z,8.91
2023-04-11T04:32:54.094Z,8.88
2023-04-11T04:33:54.256Z,9.11
2023-04-11T04:34:54.139Z,8.73
2023-04-11T04:35:54.181Z,8.55
2023-04-11T04:36:54.160Z,10.16
2023-04-11T04:37:54.290Z,8.74
2023-04-11T04:38:54.201Z,9.00
2023-04-11T04:39:54.270Z,9.96
2023-04-11T04:40:54.245Z,9.31
2023-04-11T04:41:54.257Z,8.48
2023-04-11T04:42:54.285Z,8.70
2023-04-11T04:43:54.598Z,8.38
2023-04-11T04:44:54.301Z,9.49
2023-04-11T04:45:54.368Z,8.92
2023-04-11T04:46:54.341Z,8.95
2023-04-11T04:47:54.387Z,9.13
2023-04-11T04:48:54.386Z,8.56
2023-04-11T04:49:54.397Z,9.02
2023-04-11T04:50:54.414Z,9.45
2023-04-11T04:51:54.438Z,9.19
2023-04-11T04:52:54.459Z,9.13
2023-04-11T04:53:54.721Z,9.52
2023-04-11T04:54:54.560Z,9.39
2023-04-11T04:55:54.613Z,9.01
2023-04-11T04:56:54.690Z,8.97
2023-04-11T04:57:54.748Z,9.25
2023-04-11T04:58:54.813Z,9.00
2023-04-11T04:59:54.911Z,9.61
2023-04-11T05:00:55.052Z,8.42
2023-04-11T05:01:55.127Z,9.44
2023-04-11T05:02:55.234Z,9.03
2023-04-11T05:03:55.449Z,8.50
2023-04-11T05:04:55.215Z,8.16
2023-04-11T05:05:55.271Z,8.64
2023-04-11T05:06:55.381Z,8.68
2023-04-11T05:07:55.430Z,8.48
2023-04-11T05:08:55.519Z,8.05
2023-04-11T05:09:55.620Z,8.15
2023-04-11T05:10:55.676Z,7.51
2023-04-11T05:11:55.738Z,8.22
2023-04-11T05:12:55.804Z,7.87
2023-04-11T05:13:56.055Z,7.49
2023-04-11T05:14:55.913Z,7.32
2023-04-11T05:15:55.985Z,7.54
2023-04-11T05:16:56.041Z,7.62
2023-04-11T05:17:56.103Z,6.76
2023-04-11T05:18:56.109Z,7.32
2023-04-11T05:19:56.153Z,6.80
2023-04-11T05:20:56.211Z,7.39
2023-04-11T05:21:56.771Z,6.52
2023-04-11T05:22:56.356Z,6.61
2023-04-11T05:23:57.106Z,6.76
2023-04-11T05:24:56.496Z,6.62
2023-04-11T05:25:56.565Z,6.14
2023-04-11T05:26:57.226Z,6.66
2023-04-11T05:27:56.701Z,7.12
2023-04-11T05:28:56.774Z,6.30
2023-04-11T05:29:57.606Z,6.12
2023-04-11T05:30:57.909Z,5.69
2023-04-11T05:31:57.031Z,5.58
2023-04-11T05:32:57.150Z,6.06
2023-04-11T05:33:57.383Z,8.41
2023-04-11T05:34:59.401Z,8.42
2023-04-11T05:35:57.773Z,8.76
2023-04-11T05:36:57.351Z,8.73
2023-04-11T05:37:57.377Z,8.68
2023-04-11T05:38:57.411Z,8.43
2023-04-11T05:39:57.448Z,7.47
2023-04-11T05:40:57.777Z,6.88
2023-04-11T05:41:57.527Z,7.41
2023-04-11T05:42:57.549Z,8.95
2023-04-11T05:43:57.955Z,7.99
2023-04-11T05:44:57.600Z,8.93
2023-04-11T05:45:57.591Z,9.01
2023-04-11T05:46:57.605Z,9.29
2023-04-11T05:47:57.796Z,8.55
2023-04-11T05:48:57.879Z,7.91
2023-04-11T05:49:57.705Z,7.76
2023-04-11T05:50:57.723Z,7.96
2023-04-11T05:52:00.932Z,7.64
2023-04-11T05:52:57.793Z,8.09
2023-04-11T05:53:58.286Z,7.48
2023-04-11T05:54:58.809Z,8.80
2023-04-11T05:55:57.842Z,8.84
2023-04-11T05:56:57.880Z,10.10
2023-04-11T05:57:58.309Z,10.21
2023-04-11T05:58:59.041Z,9.15
2023-04-11T05:59:58.304Z,9.84
2023-04-11T06:00:57.959Z,9.14
2023-04-11T06:01:58.005Z,9.21
2023-04-11T06:02:58.090Z,9.22
2023-04-11T06:04:01.669Z,8.52
2023-04-11T06:05:01.607Z,9.16
2023-04-11T06:05:59.064Z,9.25
2023-04-11T06:07:01.283Z,9.14
2023-04-11T06:07:58.087Z,9.32
2023-04-11T06:08:58.220Z,7.86
2023-04-11T06:09:58.307Z,8.19
2023-04-11T06:10:58.246Z,8.89
2023-04-11T06:11:58.193Z,8.33
2023-04-11T06:12:59.157Z,9.24
2023-04-11T06:13:58.672Z,9.40
2023-04-11T06:14:58.246Z,9.59
2023-04-11T06:15:58.266Z,8.80
2023-04-11T06:16:58.234Z,8.56
2023-04-11T06:17:58.279Z,8.92
2023-04-11T06:18:58.228Z,7.48
2023-04-11T06:19:58.288Z,8.71
2023-04-11T06:20:58.657Z,8.74
2023-04-11T06:21:58.776Z,7.77
2023-04-11T06:22:58.330Z,7.30
2023-04-11T06:23:58.339Z,7.49
2023-04-11T06:24:58.371Z,7.07
2023-04-11T06:25:58.385Z,7.72
2023-04-11T06:26:58.423Z,7.42
2023-04-11T06:27:58.502Z,7.18
2023-04-11T06:28:58.495Z,7.67
2023-04-11T06:29:58.566Z,7.75
2023-04-11T06:30:58.682Z,7.74
2023-04-11T06:31:58.739Z,7.98
2023-04-11T06:32:59.365Z,8.20
2023-04-11T06:33:58.980Z,8.25
2023-04-11T06:34:58.988Z,9.06
2023-04-11T06:35:59.027Z,7.88
2023-04-11T06:36:59.033Z,8.53
2023-04-11T06:37:59.057Z,8.55
2023-04-11T06:38:59.091Z,7.97
2023-04-11T06:39:59.082Z,8.70
2023-04-11T06:40:59.119Z,8.94
2023-04-11T06:41:59.222Z,8.19
2023-04-11T06:42:59.295Z,8.62
2023-04-11T06:43:59.550Z,8.73
2023-04-11T06:44:59.742Z,9.04
2023-04-11T06:45:59.496Z,9.26
2023-04-11T06:46:59.584Z,11.61
2023-04-11T06:47:59.893Z,11.22
2023-04-11T06:48:59.673Z,11.54
2023-04-11T06:49:59.770Z,10.10
2023-04-11T06:50:59.850Z,9.69
2023-04-11T06:51:59.970Z,9.71
2023-04-11T06:53:00.304Z,9.73
2023-04-11T06:54:00.345Z,8.79
2023-04-11T06:55:00.197Z,9.84
2023-04-11T06:56:00.273Z,10.48
2023-04-11T06:57:00.391Z,9.15
2023-04-11T06:58:00.481Z,9.60
2023-04-11T06:59:00.790Z,10.05
2023-04-11T07:00:00.796Z,13.95
2023-04-11T07:01:00.703Z,11.77
2023-04-11T07:02:00.918Z,13.65
2023-04-11T07:03:01.092Z,17.94
2023-04-11T07:04:01.559Z,12.01
2023-04-11T07:05:01.028Z,9.95
2023-04-11T07:06:01.133Z,9.46
2023-04-11T07:07:01.273Z,8.49
2023-04-11T07:08:01.472Z,9.01
2023-04-11T07:09:01.462Z,10.67
2023-04-11T07:10:01.632Z,10.61
2023-04-11T07:11:01.802Z,9.40
2023-04-11T07:12:01.768Z,9.58
2023-04-11T07:13:02.381Z,9.94
2023-04-11T07:14:02.771Z,10.44
2023-04-11T07:15:02.012Z,11.18
2023-04-11T07:16:02.129Z,9.31
2023-04-11T07:17:02.236Z,8.51
2023-04-11T07:18:02.484Z,8.40
2023-04-11T07:19:02.446Z,8.36
2023-04-11T07:20:02.822Z,9.02
2023-04-11T07:21:02.598Z,8.85
2023-04-11T07:22:02.651Z,9.18
2023-04-11T07:23:02.704Z,8.83
2023-04-11T07:24:03.321Z,9.30
2023-04-11T07:25:02.924Z,9.00
2023-04-11T07:26:03.334Z,9.41
2023-04-11T07:27:03.039Z,9.17
2023-04-11T07:28:03.097Z,8.42
2023-04-11T07:29:03.111Z,8.60
2023-04-11T07:30:03.154Z,9.21
2023-04-11T07:31:03.296Z,8.52
2023-04-11T07:32:03.244Z,9.57
2023-04-11T07:33:03.369Z,10.51
2023-04-11T07:34:03.405Z,9.86
2023-04-11T07:35:03.396Z,8.46
2023-04-11T07:36:03.901Z,7.81
2023-04-11T07:37:03.520Z,8.37
2023-04-11T07:38:03.630Z,9.74
2023-04-11T07:39:03.604Z,12.30
2023-04-11T07:40:03.782Z,11.97
2023-04-11T07:41:03.821Z,9.17
2023-04-11T07:42:03.669Z,10.22
2023-04-11T07:43:04.686Z,8.94
2023-04-11T07:44:03.794Z,7.56
2023-04-11T07:45:03.735Z,7.50
2023-04-11T07:46:04.241Z,7.18
2023-04-11T07:47:03.854Z,7.28
2023-04-11T07:48:03.938Z,7.70
2023-04-11T07:49:04.324Z,7.24
2023-04-11T07:50:04.049Z,7.04
2023-04-11T07:51:03.979Z,6.49
2023-04-11T07:52:03.977Z,6.65
2023-04-11T07:53:04.803Z,6.82
2023-04-11T07:54:03.976Z,6.76
2023-04-11T07:55:03.987Z,10.48
2023-04-11T07:56:04.765Z,9.74
2023-04-11T07:57:04.038Z,9.68
2023-04-11T07:58:04.129Z,8.92
2023-04-11T07:59:04.099Z,7.99
2023-04-11T08:00:04.119Z,7.81
2023-04-11T08:01:04.328Z,7.19
2023-04-11T08:02:04.604Z,8.68
2023-04-11T08:03:04.849Z,9.17
2023-04-11T08:04:05.077Z,9.88
2023-04-11T08:05:04.654Z,8.82
2023-04-11T08:06:04.571Z,9.21
2023-04-11T08:07:04.832Z,9.60
2023-04-11T08:08:04.341Z,8.52
2023-04-11T08:09:04.796Z,9.18
2023-04-11T08:10:04.436Z,8.82
2023-04-11T08:11:04.470Z,7.88
2023-04-11T08:12:04.969Z,9.42
2023-04-11T08:13:04.641Z,8.29
2023-04-11T08:14:04.721Z,8.45
2023-04-11T08:15:04.714Z,8.28
2023-04-11T08:16:04.803Z,8.56
2023-04-11T08:17:12.093Z,9.25
2023-04-11T08:18:04.840Z,10.37
2023-04-11T08:19:05.350Z,8.36
2023-04-11T08:20:04.881Z,8.05
2023-04-11T08:21:04.885Z,8.23
2023-04-11T08:22:04.860Z,7.72
2023-04-11T08:23:05.951Z,11.09
2023-04-11T08:24:05.333Z,9.91
2023-04-11T08:25:04.841Z,9.81
2023-04-11T08:26:05.330Z,9.38
2023-04-11T08:27:04.842Z,9.42
2023-04-11T08:28:04.841Z,7.49
2023-04-11T08:29:04.802Z,8.13
2023-04-11T08:30:04.786Z,8.85
2023-04-11T08:31:04.857Z,8.06
2023-04-11T08:32:04.812Z,9.21
2023-04-11T08:33:04.851Z,8.50
2023-04-11T08:34:07.109Z,8.12
2023-04-11T08:35:04.810Z,8.66
2023-04-11T08:36:04.798Z,8.19
2023-04-11T08:37:04.757Z,7.74
2023-04-11T08:38:04.722Z,8.09
2023-04-11T08:39:04.812Z,7.70
2023-04-11T08:40:04.735Z,7.98
2023-04-11T08:41:04.639Z,7.88
2023-04-11T08:42:04.657Z,7.05
2023-04-11T08:43:04.595Z,7.28
2023-04-11T08:44:04.875Z,7.70
2023-04-11T08:45:04.816Z,7.51
2023-04-11T08:46:04.590Z,7.95
2023-04-11T08:47:04.493Z,8.23
2023-04-11T08:48:04.502Z,7.47
2023-04-11T08:49:04.773Z,8.14
2023-04-11T08:50:04.811Z,7.47
2023-04-11T08:51:04.454Z,7.97
2023-04-11T08:52:04.420Z,7.91
2023-04-11T08:53:04.443Z,7.68
2023-04-11T08:54:04.812Z,8.60
2023-04-11T08:55:04.371Z,6.61
2023-04-11T08:56:04.747Z,7.65
2023-04-11T08:57:04.392Z,8.68
2023-04-11T08:58:04.729Z,7.18
2023-04-11T08:59:04.320Z,7.87
2023-04-11T09:00:04.373Z,8.70
2023-04-11T09:01:04.290Z,8.07
2023-04-11T09:02:04.403Z,8.31
2023-04-11T09:03:04.956Z,7.75
2023-04-11T09:04:04.310Z,8.38
2023-04-11T09:05:04.183Z,7.82
2023-04-11T09:06:04.316Z,7.65
2023-04-11T09:07:04.089Z,7.26
2023-04-11T09:08:04.058Z,7.93
2023-04-11T09:09:04.122Z,8.58
2023-04-11T09:10:03.987Z,9.04
2023-04-11T09:11:04.315Z,9.05
2023-04-11T09:12:03.957Z,9.03
2023-04-11T09:13:03.901Z,8.36
2023-04-11T09:14:04.819Z,8.90
2023-04-11T09:15:05.046Z,9.13
2023-04-11T09:16:04.066Z,9.78
2023-04-11T09:17:03.744Z,8.84
2023-04-11T09:18:03.735Z,9.59
2023-04-11T09:19:03.688Z,10.57
2023-04-11T09:20:03.820Z,9.99
2023-04-11T09:21:03.736Z,9.69
2023-04-11T09:22:03.748Z,9.58
2023-04-11T09:23:03.742Z,10.53
2023-04-11T09:24:03.824Z,10.16
2023-04-11T09:25:03.701Z,10.15
2023-04-11T09:26:03.653Z,10.14
2023-04-11T09:27:03.646Z,9.32
2023-04-11T09:28:03.639Z,9.73
2023-04-11T09:29:03.826Z,9.05
2023-04-11T09:30:03.894Z,9.45
2023-04-11T09:31:03.651Z,9.09
2023-04-11T09:32:03.866Z,9.57
2023-04-11T09:33:03.701Z,8.80
2023-04-11T09:34:03.911Z,8.72
2023-04-11T09:35:03.690Z,7.82
2023-04-11T09:36:03.773Z,7.74
2023-04-11T09:37:03.741Z,8.07
2023-04-11T09:38:03.753Z,8.12
2023-04-11T09:39:03.835Z,8.72
2023-04-11T09:40:05.601Z,9.19
2023-04-11T09:41:03.878Z,9.05
2023-04-11T09:42:03.842Z,8.54
2023-04-11T09:43:03.622Z,8.78
2023-04-11T09:44:03.604Z,8.70
2023-04-11T09:45:03.567Z,7.87
2023-04-11T09:46:03.961Z,8.29
2023-04-11T09:47:03.614Z,9.18
2023-04-11T09:48:03.526Z,8.37
2023-04-11T09:49:03.708Z,9.28
2023-04-11T09:50:03.423Z,8.94
2023-04-11T09:51:03.858Z,9.10
2023-04-11T09:52:03.855Z,8.56
2023-04-11T09:53:03.324Z,8.03
2023-04-11T09:54:03.478Z,7.76
2023-04-11T09:55:03.710Z,7.98
2023-04-11T09:56:03.213Z,8.13
2023-04-11T09:57:03.597Z,7.46
2023-04-11T09:58:03.655Z,7.82
2023-04-11T09:59:03.141Z,7.91
2023-04-11T10:00:03.025Z,7.81
2023-04-11T10:01:03.012Z,7.66
2023-04-11T10:02:03.555Z,8.52
2023-04-11T10:03:02.621Z,8.87
2023-04-11T10:04:03.360Z,9.09
2023-04-11T10:05:03.563Z,8.70
2023-04-11T10:06:03.054Z,8.73
2023-04-11T10:07:03.597Z,8.63
2023-04-11T10:08:03.527Z,8.64
2023-04-11T10:09:03.022Z,7.91
2023-04-11T10:10:03.352Z,8.73
2023-04-11T10:11:04.314Z,9.14
2023-04-11T10:12:03.094Z,9.65
2023-04-11T10:13:03.071Z,9.22
2023-04-11T10:14:04.065Z,7.77
2023-04-11T10:15:03.056Z,8.34
2023-04-11T10:16:03.075Z,8.47
2023-04-11T10:17:02.999Z,8.30
2023-04-11T10:18:02.998Z,8.70
2023-04-11T10:19:02.952Z,8.08
2023-04-11T10:20:02.926Z,8.81
2023-04-11T10:21:03.377Z,7.63
2023-04-11T10:22:03.339Z,8.79
2023-04-11T10:23:03.340Z,8.66
2023-04-11T10:24:02.812Z,8.09
2023-04-11T10:25:02.798Z,8.76
2023-04-11T10:26:02.798Z,8.59
2023-04-11T10:27:02.836Z,8.05
2023-04-11T10:28:02.829Z,7.80
2023-04-11T10:29:07.415Z,7.71
2023-04-11T10:30:02.867Z,8.31
2023-04-11T10:31:02.855Z,8.26
2023-04-11T10:32:02.830Z,7.47
2023-04-11T10:33:07.960Z,7.61
2023-04-11T10:34:04.678Z,7.49
2023-04-11T10:35:06.032Z,7.57
2023-04-11T10:36:05.881Z,6.79
2023-04-11T10:37:02.554Z,7.02
2023-04-11T10:38:02.566Z,7.24
2023-04-11T10:39:03.382Z,7.73
2023-04-11T10:40:02.453Z,7.66
2023-04-11T10:41:04.028Z,7.68
2023-04-11T10:42:02.425Z,8.03
2023-04-11T10:43:02.306Z,7.64
2023-04-11T10:44:02.377Z,6.99
2023-04-11T10:45:02.243Z,7.74
2023-04-11T10:46:02.403Z,7.35
2023-04-11T10:47:02.478Z,6.99
2023-04-11T10:48:02.107Z,7.27
2023-04-11T10:49:03.345Z,6.81
2023-04-11T10:50:01.932Z,5.68
2023-04-11T10:51:02.024Z,5.10
2023-04-11T10:52:01.865Z,5.32
2023-04-11T10:53:03.556Z,2.75
2023-04-11T10:54:02.742Z,2.35
2023-04-11T10:55:01.821Z,4.76
2023-04-11T10:56:01.801Z,2.71
2023-04-11T10:57:01.802Z,1.71
2023-04-11T10:58:01.872Z,1.63
2023-04-11T10:59:01.915Z,0.97
2023-04-11T11:00:01.935Z,0.64
2023-04-11T11:01:01.939Z,0.88
2023-04-11T11:02:01.955Z,0.79
2023-04-11T11:03:01.895Z,0.66
2023-04-11T11:04:02.130Z,0.52
2023-04-11T11:05:01.946Z,0.31
2023-04-11T11:06:02.349Z,0.35
2023-04-11T11:07:02.160Z,1.19
2023-04-11T11:08:02.050Z,0.47
2023-04-11T11:09:02.483Z,0.60
2023-04-11T11:10:02.126Z,1.02
2023-04-11T11:11:02.809Z,1.40
2023-04-11T11:12:02.011Z,1.51
2023-04-11T11:14:01.145Z,1.60
2023-04-11T11:15:02.174Z,0.95
2023-04-11T11:16:02.296Z,1.54
2023-04-11T11:17:02.409Z,0.52
2023-04-11T11:18:02.884Z,4.65
2023-04-11T11:19:02.403Z,31.70
2023-04-11T11:20:02.469Z,32.47
2023-04-11T11:21:02.551Z,11.76
2023-04-11T11:22:02.618Z,13.54
2023-04-11T11:23:02.871Z,13.91
2023-04-11T11:24:02.724Z,17.75
2023-04-11T11:25:02.776Z,18.11
2023-04-11T11:26:02.865Z,3.92
2023-04-11T11:27:03.068Z,1.27
2023-04-11T11:28:02.971Z,0.84
2023-04-11T11:29:03.751Z,2.49
2023-04-11T11:30:03.120Z,3.32
2023-04-11T11:31:03.171Z,5.90
2023-04-11T11:32:03.470Z,5.79
2023-04-11T11:33:03.382Z,2.76
2023-04-11T11:35:02.855Z,2.02
2023-04-11T11:36:03.583Z,2.14
2023-04-11T11:37:03.471Z,3.98
2023-04-11T11:38:03.854Z,1.37
2023-04-11T11:39:03.577Z,0.89
2023-04-11T11:40:03.559Z,1.60
2023-04-11T11:41:03.564Z,2.80
2023-04-11T11:42:03.651Z,1.80
2023-04-11T11:43:04.848Z,1.47
2023-04-11T11:44:03.685Z,2.04
2023-04-11T11:45:03.721Z,0.95
2023-04-11T11:46:04.823Z,0.86
2023-04-11T11:47:03.804Z,3.48
2023-04-11T11:48:03.918Z,7.84
2023-04-11T11:49:04.954Z,1.70
2023-04-11T11:50:06.985Z,0.74
2023-04-11T11:51:05.822Z,1.31
2023-04-11T11:52:04.381Z,2.01
2023-04-11T11:53:04.039Z,1.78
2023-04-11T11:54:04.374Z,0.80
2023-04-11T11:55:05.267Z,0.79
2023-04-11T11:56:04.140Z,0.59
2023-04-11T11:57:04.364Z,0.92
2023-04-11T11:58:04.359Z,0.82
2023-04-11T11:59:04.197Z,0.58
2023-04-11T12:00:04.228Z,0.71
2023-04-11T12:01:04.229Z,0.78
2023-04-11T12:02:04.321Z,1.46
2023-04-11T12:03:04.489Z,3.78
2023-04-11T12:04:04.409Z,1.57
2023-04-11T12:05:04.754Z,1.59
2023-04-11T12:06:04.314Z,1.45
2023-04-11T12:07:04.392Z,1.45
2023-04-11T12:08:04.923Z,1.39
2023-04-11T12:09:04.487Z,1.38
2023-04-11T12:10:05.075Z,1.19
2023-04-11T12:11:04.597Z,1.02
2023-04-11T12:12:05.869Z,0.52
2023-04-11T12:13:04.887Z,0.20
2023-04-11T12:14:05.992Z,0.24
2023-04-11T12:15:05.201Z,0.28
2023-04-11T12:16:05.428Z,0.42
2023-04-11T12:17:05.045Z,0.56
2023-04-11T12:18:06.098Z,0.27
2023-04-11T12:19:05.454Z,0.36
2023-04-11T12:20:05.260Z,0.29
2023-04-11T12:21:05.284Z,0.25
2023-04-11T12:22:05.316Z,0.25
2023-04-11T12:23:05.864Z,0.19
2023-04-11T12:24:05.456Z,0.33
2023-04-11T12:25:05.498Z,0.50
2023-04-11T12:26:05.560Z,0.29
2023-04-11T12:27:07.315Z,0.37
2023-04-11T12:28:06.234Z,0.25
2023-04-11T12:29:05.858Z,0.47
2023-04-11T12:30:05.721Z,0.50
2023-04-11T12:31:05.761Z,0.28
2023-04-11T12:32:05.749Z,0.38
2023-04-11T12:33:05.960Z,0.46
2023-04-11T12:34:05.804Z,0.53
2023-04-11T12:35:05.865Z,0.34
2023-04-11T12:36:05.880Z,0.59
2023-04-11T12:37:05.902Z,0.57
2023-04-11T12:38:05.927Z,0.78
2023-04-11T12:39:06.752Z,0.54
2023-04-11T12:40:06.237Z,0.69
2023-04-11T12:41:30.212Z,0.72
2023-04-11T12:42:05.978Z,0.75
2023-04-11T12:43:05.992Z,0.90
2023-04-11T12:44:05.972Z,0.81
2023-04-11T12:45:05.981Z,1.31
2023-04-11T12:46:06.054Z,1.26
2023-04-11T12:47:06.513Z,1.28
2023-04-11T12:48:06.024Z,1.37
2023-04-11T12:49:05.964Z,1.22
2023-04-11T12:50:06.454Z,1.47
2023-04-11T12:51:05.946Z,1.20
2023-04-11T12:52:06.148Z,1.74
2023-04-11T12:53:05.938Z,2.09
2023-04-11T12:54:06.373Z,2.87
2023-04-11T12:55:05.942Z,1.97
2023-04-11T12:56:05.941Z,1.77
2023-04-11T12:57:05.964Z,1.55
2023-04-11T12:58:05.990Z,1.33
2023-04-11T12:59:06.394Z,1.55
2023-04-11T13:00:06.055Z,1.29
2023-04-11T13:01:06.096Z,1.16
2023-04-11T13:02:06.281Z,1.01
2023-04-11T13:03:06.391Z,1.05
2023-04-11T13:04:06.489Z,0.90
2023-04-11T13:05:06.303Z,1.00
2023-04-11T13:06:06.231Z,0.95
2023-04-11T13:07:06.238Z,1.11
2023-04-11T13:08:06.245Z,1.33
2023-04-11T13:09:07.536Z,0.78
2023-04-11T13:10:06.398Z,0.84
2023-04-11T13:11:06.482Z,0.88
2023-04-11T13:12:06.573Z,1.06
2023-04-11T13:13:17.502Z,0.95
2023-04-11T13:14:06.607Z,1.79
2023-04-11T13:15:06.816Z,1.20
2023-04-11T13:16:06.648Z,0.76
2023-04-11T13:17:06.659Z,0.59
2023-04-11T13:18:06.665Z,0.47
2023-04-11T13:19:06.879Z,0.81